Adel, Oregon
Current Conditions -  °F | °C
As of 6:35 AM on Saturday 25 Oct 2014 (Local Time) from KLKV Reporting Station
Clear Clear  
Wind Chill: 40°   Ceiling: Unl
Heat Index: 48°   Visibility: 10mi
Dew Point: 34°   Wind: 28mph
Humidity: 57%   Direction: 170°S
Pressure: 29.8"   Gusts: 33mph
Location:  42.18°N, 119.9°W
Report Text: KLKV 251335Z AUTO 17024G29KT 10SM CLR 09/01 A2980 RMK AO1
Loading
Personal Weather Stations






























Interactive Weather Map
Tropical Storm Tracking
New forecast layout! Learn more

10-Day Weather Forecast

Advertisements
Track Severe Weather on mobile